Center, Missouri
Current Conditions -  °F | °C
As of 4:15 AM on Monday 20 Oct 2014 (Local Time) from KHAE Reporting Station
Clear Clear  
Wind Chill: 55°   Ceiling: Unl
Heat Index: 55°   Visibility: 10mi
Dew Point: 46°   Wind: 10mph
Humidity: 72%   Direction: 240°WSW
Pressure: 29.93"   Gusts: 16mph
Location:  39.51°N, 91.53°W
Report Text: KHAE 200915Z AUTO 24009G14KT 10SM CLR 13/08 A2993 RMK AO2
Loading
Personal Weather Stations






























Interactive Weather Map
Tropical Storm Tracking
New forecast layout! Learn more

10-Day Weather Forecast

Advertisements
Track Severe Weather on mobile